Airfield :
LOGIN :

Register | Disclaimer

   EN    FR    IT 

 










Legend :    VFR   Marginal VFR   IFR   Intensive IFR   Very Intensive IFR
Visi :
Ceiling :
>= 8 km
>= 3000ft
5 to 8 km
1000 to 3000 ft
1500m to 5 km
500 to 1000 ft
800 to 1500m
200 to 500 ft
< 800m
< 200 ft
Symbols :   Thunderstorms  Fog  Heavy snow  Heavy precipitations  Wind > 20 kt
SIGMETs :     Misc.  Thunderstorms  Icing  Turbulence  Mountain Waves  Volcanic Ashes







- Airport Elevation : 219 ft
- IATA code : DNR
- Download approach charts


LFRD - Dinard

CURRENT METAR :
  • 181200Z AUTO 20006KT 5000 BR OVC002 09/08 Q1027 BECMG SCT020

EXPIRED METARs :
  • 181130Z AUTO 21006KT 5000 BR OVC002 08/08 Q1027 BECMG SCT030
  • 181100Z AUTO 20005KT 2200 BR OVC002 08/08 Q1027 BECMG 9999 NSW BKN025
  • 181030Z AUTO 19006KT 5000 BR BKN002 07/07 Q1027 BECMG BKN025
  • 181000Z AUTO 20006KT CAVOK 07/07 Q1027 NOSIG
  • 180930Z AUTO 19004KT 9999 FEW026 07/07 Q1027 NOSIG

TAF TAF LFRD
Valid from the 18 at 12:00 until the 19 at 12:00 UTC


181100Z 1812/1912 19005KT 1500 BR BKN002
BECMG 1812/1813 9999 NSW SCT020
BECMG 1818/1820 26010KT 3000 BR
TEMPO 1818/1904 BKN003
BECMG 1904/1906 32010KT 9999 NSW BKN005
TEMPO 1906/1910 3000 RADZ
BECMG 1907/1909 VRB03KT
BECMG 1909/1911 BKN014
ATIS : +33 2 99 16 81 50
No reported NOTAMs for that airfield.



MET'MAP, your aeronautical weather chart ! - Copyright ORBIFLY December 2007 - Disclaimer

ORBIFLY MET'MAP TEAM :

Programming & Development : Alexandra Zaïnal
Concept & Development : Baudouin d'Aumeries
Co-Development & Prog : Marc-Olivier Méhu
Technical & hardware support : Manuel Goepfert

Contact : metmap@orbifly.com




SOURCES & CREDITS :

   NOAA